sensor_id;sensor_type;location;lat;lon;timestamp;P1;durP1;ratioP1;P2;durP2;ratioP2
30934;SDS011;51033;42.648;23.292;2022-09-25T00:02:11;4.32;;;2.40;;
30934;SDS011;51033;42.648;23.292;2022-09-25T00:04:37;2.45;;;2.08;;
30934;SDS011;51033;42.648;23.292;2022-09-25T00:07:02;8.85;;;3.10;;
30934;SDS011;51033;42.648;23.292;2022-09-25T00:09:28;2.58;;;2.33;;
30934;SDS011;51033;42.648;23.292;2022-09-25T00:11:53;3.58;;;2.88;;
30934;SDS011;51033;42.648;23.292;2022-09-25T00:14:18;4.68;;;2.80;;
30934;SDS011;51033;42.648;23.292;2022-09-25T00:16:44;4.32;;;3.03;;
30934;SDS011;51033;42.648;23.292;2022-09-25T00:19:10;4.85;;;3.10;;
30934;SDS011;51033;42.648;23.292;2022-09-25T00:22:03;3.45;;;2.50;;
30934;SDS011;51033;42.648;23.292;2022-09-25T00:24:28;5.10;;;2.88;;
30934;SDS011;51033;42.648;23.292;2022-09-25T00:26:56;3.53;;;2.35;;
30934;SDS011;51033;42.648;23.292;2022-09-25T00:29:21;3.60;;;3.00;;
30934;SDS011;51033;42.648;23.292;2022-09-25T00:31:46;3.70;;;2.28;;
30934;SDS011;51033;42.648;23.292;2022-09-25T00:34:12;2.47;;;2.22;;
30934;SDS011;51033;42.648;23.292;2022-09-25T00:36:37;2.35;;;2.05;;
30934;SDS011;51033;42.648;23.292;2022-09-25T00:39:03;3.03;;;2.33;;
30934;SDS011;51033;42.648;23.292;2022-09-25T00:41:29;3.33;;;2.00;;
30934;SDS011;51033;42.648;23.292;2022-09-25T00:43:56;2.85;;;2.45;;
30934;SDS011;51033;42.648;23.292;2022-09-25T00:46:24;3.50;;;2.65;;
30934;SDS011;51033;42.648;23.292;2022-09-25T00:48:58;3.28;;;2.58;;
30934;SDS011;51033;42.648;23.292;2022-09-25T00:51:32;2.75;;;2.40;;
30934;SDS011;51033;42.648;23.292;2022-09-25T00:54:04;2.75;;;2.10;;
30934;SDS011;51033;42.648;23.292;2022-09-25T00:56:33;3.30;;;2.58;;
30934;SDS011;51033;42.648;23.292;2022-09-25T00:59:02;3.83;;;2.42;;
30934;SDS011;51033;42.648;23.292;2022-09-25T01:01:28;4.07;;;2.60;;
30934;SDS011;51033;42.648;23.292;2022-09-25T01:03:54;3.65;;;2.90;;
30934;SDS011;51033;42.648;23.292;2022-09-25T01:06:20;6.03;;;3.83;;
30934;SDS011;51033;42.648;23.292;2022-09-25T01:08:47;3.17;;;2.85;;
30934;SDS011;51033;42.648;23.292;2022-09-25T01:11:14;6.05;;;3.78;;
30934;SDS011;51033;42.648;23.292;2022-09-25T01:13:40;6.72;;;3.17;;
30934;SDS011;51033;42.648;23.292;2022-09-25T01:22:04;5.07;;;3.33;;
30934;SDS011;51033;42.648;23.292;2022-09-25T01:24:36;3.42;;;2.78;;
30934;SDS011;51033;42.648;23.292;2022-09-25T01:29:44;3.05;;;2.65;;
30934;SDS011;51033;42.648;23.292;2022-09-25T01:43:22;4.30;;;2.95;;
30934;SDS011;51033;42.648;23.292;2022-09-25T01:45:56;3.15;;;2.67;;
30934;SDS011;51033;42.648;23.292;2022-09-25T01:48:26;5.35;;;2.92;;
30934;SDS011;51033;42.648;23.292;2022-09-25T01:51:04;3.13;;;2.80;;
30934;SDS011;51033;42.648;23.292;2022-09-25T01:53:41;4.57;;;3.25;;
30934;SDS011;51033;42.648;23.292;2022-09-25T01:56:17;4.78;;;3.03;;
30934;SDS011;51033;42.648;23.292;2022-09-25T01:58:58;2.90;;;2.47;;
30934;SDS011;51033;42.648;23.292;2022-09-25T02:01:31;3.88;;;3.28;;
30934;SDS011;51033;42.648;23.292;2022-09-25T02:04:04;4.07;;;2.67;;
30934;SDS011;51033;42.648;23.292;2022-09-25T02:06:34;3.83;;;3.35;;
30934;SDS011;51033;42.648;23.292;2022-09-25T02:09:03;4.70;;;3.33;;
30934;SDS011;51033;42.648;23.292;2022-09-25T02:11:38;3.85;;;3.10;;
30934;SDS011;51033;42.648;23.292;2022-09-25T02:14:23;4.10;;;3.00;;
30934;SDS011;51033;42.648;23.292;2022-09-25T02:16:53;6.53;;;3.08;;
30934;SDS011;51033;42.648;23.292;2022-09-25T02:19:22;6.25;;;3.08;;
30934;SDS011;51033;42.648;23.292;2022-09-25T02:22:07;6.50;;;3.53;;
30934;SDS011;51033;42.648;23.292;2022-09-25T02:27:14;2.92;;;2.63;;
30934;SDS011;51033;42.648;23.292;2022-09-25T02:29:42;5.10;;;3.90;;
30934;SDS011;51033;42.648;23.292;2022-09-25T02:32:09;5.78;;;3.33;;
30934;SDS011;51033;42.648;23.292;2022-09-25T02:34:37;5.18;;;3.65;;
30934;SDS011;51033;42.648;23.292;2022-09-25T02:37:08;5.97;;;3.80;;
30934;SDS011;51033;42.648;23.292;2022-09-25T02:39:38;4.80;;;3.03;;
30934;SDS011;51033;42.648;23.292;2022-09-25T02:50:24;3.58;;;2.42;;
30934;SDS011;51033;42.648;23.292;2022-09-25T02:58:48;2.80;;;2.50;;
30934;SDS011;51033;42.648;23.292;2022-09-25T03:01:13;4.40;;;3.03;;
30934;SDS011;51033;42.648;23.292;2022-09-25T03:03:40;3.95;;;2.78;;
30934;SDS011;51033;42.648;23.292;2022-09-25T03:06:09;4.25;;;3.13;;
30934;SDS011;51033;42.648;23.292;2022-09-25T03:08:36;6.82;;;3.55;;
30934;SDS011;51033;42.648;23.292;2022-09-25T03:13:37;4.70;;;3.70;;
30934;SDS011;51033;42.648;23.292;2022-09-25T03:18:37;6.20;;;4.97;;
30934;SDS011;51033;42.648;23.292;2022-09-25T03:21:02;7.25;;;4.57;;
30934;SDS011;51033;42.648;23.292;2022-09-25T03:23:28;8.50;;;5.95;;
30934;SDS011;51033;42.648;23.292;2022-09-25T03:25:55;6.50;;;5.03;;
30934;SDS011;51033;42.648;23.292;2022-09-25T03:28:20;6.95;;;5.32;;
30934;SDS011;51033;42.648;23.292;2022-09-25T03:30:57;9.18;;;5.13;;
30934;SDS011;51033;42.648;23.292;2022-09-25T03:33:36;6.25;;;4.72;;
30934;SDS011;51033;42.648;23.292;2022-09-25T03:36:08;4.60;;;3.85;;
30934;SDS011;51033;42.648;23.292;2022-09-25T03:38:39;8.20;;;4.78;;
30934;SDS011;51033;42.648;23.292;2022-09-25T03:41:08;9.00;;;4.03;;
30934;SDS011;51033;42.648;23.292;2022-09-25T03:43:35;6.90;;;4.30;;
30934;SDS011;51033;42.648;23.292;2022-09-25T03:46:02;9.38;;;5.70;;
30934;SDS011;51033;42.648;23.292;2022-09-25T03:48:29;8.57;;;5.53;;
30934;SDS011;51033;42.648;23.292;2022-09-25T03:50:55;7.32;;;4.95;;
30934;SDS011;51033;42.648;23.292;2022-09-25T03:53:20;8.63;;;6.00;;
30934;SDS011;51033;42.648;23.292;2022-09-25T03:55:46;8.88;;;6.65;;
30934;SDS011;51033;42.648;23.292;2022-09-25T03:58:13;9.07;;;6.53;;
30934;SDS011;51033;42.648;23.292;2022-09-25T04:00:40;9.13;;;6.15;;
30934;SDS011;51033;42.648;23.292;2022-09-25T04:03:06;8.98;;;6.50;;
30934;SDS011;51033;42.648;23.292;2022-09-25T04:05:31;9.73;;;6.53;;
30934;SDS011;51033;42.648;23.292;2022-09-25T04:07:56;8.38;;;5.70;;
30934;SDS011;51033;42.648;23.292;2022-09-25T04:10:22;8.23;;;5.50;;
30934;SDS011;51033;42.648;23.292;2022-09-25T04:12:48;8.93;;;5.50;;
30934;SDS011;51033;42.648;23.292;2022-09-25T04:15:18;8.48;;;5.05;;
30934;SDS011;51033;42.648;23.292;2022-09-25T04:17:47;8.88;;;5.97;;
30934;SDS011;51033;42.648;23.292;2022-09-25T04:20:13;8.23;;;5.60;;
30934;SDS011;51033;42.648;23.292;2022-09-25T04:22:38;8.23;;;6.25;;
30934;SDS011;51033;42.648;23.292;2022-09-25T04:25:04;9.82;;;6.65;;
30934;SDS011;51033;42.648;23.292;2022-09-25T04:27:29;7.47;;;5.68;;
30934;SDS011;51033;42.648;23.292;2022-09-25T04:29:56;7.55;;;5.50;;
30934;SDS011;51033;42.648;23.292;2022-09-25T04:32:21;9.32;;;6.40;;
30934;SDS011;51033;42.648;23.292;2022-09-25T04:35:06;9.02;;;5.88;;
30934;SDS011;51033;42.648;23.292;2022-09-25T04:37:31;9.55;;;6.30;;
30934;SDS011;51033;42.648;23.292;2022-09-25T04:39:57;9.65;;;6.20;;
30934;SDS011;51033;42.648;23.292;2022-09-25T04:42:23;8.93;;;5.50;;
30934;SDS011;51033;42.648;23.292;2022-09-25T04:44:50;7.78;;;5.00;;
30934;SDS011;51033;42.648;23.292;2022-09-25T04:47:17;7.45;;;5.40;;
30934;SDS011;51033;42.648;23.292;2022-09-25T04:49:43;9.85;;;5.70;;
30934;SDS011;51033;42.648;23.292;2022-09-25T04:52:10;9.07;;;5.85;;
30934;SDS011;51033;42.648;23.292;2022-09-25T04:54:37;8.98;;;6.20;;
30934;SDS011;51033;42.648;23.292;2022-09-25T04:57:02;7.38;;;5.18;;
30934;SDS011;51033;42.648;23.292;2022-09-25T04:59:29;9.02;;;5.05;;
30934;SDS011;51033;42.648;23.292;2022-09-25T05:01:58;7.65;;;5.30;;
30934;SDS011;51033;42.648;23.292;2022-09-25T05:04:23;10.25;;;6.65;;
30934;SDS011;51033;42.648;23.292;2022-09-25T05:06:49;10.48;;;6.70;;
30934;SDS011;51033;42.648;23.292;2022-09-25T05:09:15;8.98;;;6.88;;
30934;SDS011;51033;42.648;23.292;2022-09-25T05:11:41;10.30;;;7.22;;
30934;SDS011;51033;42.648;23.292;2022-09-25T05:14:06;11.30;;;7.75;;
30934;SDS011;51033;42.648;23.292;2022-09-25T05:16:33;13.55;;;8.18;;
30934;SDS011;51033;42.648;23.292;2022-09-25T05:18:58;8.93;;;6.60;;
30934;SDS011;51033;42.648;23.292;2022-09-25T05:21:24;10.30;;;7.30;;
30934;SDS011;51033;42.648;23.292;2022-09-25T05:23:49;10.88;;;8.00;;
30934;SDS011;51033;42.648;23.292;2022-09-25T05:26:15;12.30;;;8.45;;
30934;SDS011;51033;42.648;23.292;2022-09-25T05:28:40;13.25;;;7.75;;
30934;SDS011;51033;42.648;23.292;2022-09-25T05:31:06;13.27;;;8.27;;
30934;SDS011;51033;42.648;23.292;2022-09-25T05:33:32;15.40;;;8.18;;
30934;SDS011;51033;42.648;23.292;2022-09-25T05:35:59;13.25;;;8.05;;
30934;SDS011;51033;42.648;23.292;2022-09-25T05:38:30;13.43;;;8.95;;
30934;SDS011;51033;42.648;23.292;2022-09-25T05:40:59;11.60;;;8.48;;
30934;SDS011;51033;42.648;23.292;2022-09-25T05:43:27;13.18;;;8.73;;
30934;SDS011;51033;42.648;23.292;2022-09-25T05:45:53;11.27;;;8.00;;
30934;SDS011;51033;42.648;23.292;2022-09-25T05:48:19;16.13;;;9.05;;
30934;SDS011;51033;42.648;23.292;2022-09-25T05:50:49;14.18;;;8.77;;
30934;SDS011;51033;42.648;23.292;2022-09-25T05:53:18;13.18;;;8.93;;
30934;SDS011;51033;42.648;23.292;2022-09-25T05:55:53;16.75;;;9.13;;
30934;SDS011;51033;42.648;23.292;2022-09-25T05:58:24;12.27;;;9.32;;
30934;SDS011;51033;42.648;23.292;2022-09-25T06:00:51;11.98;;;8.35;;
30934;SDS011;51033;42.648;23.292;2022-09-25T06:03:16;13.80;;;8.15;;
30934;SDS011;51033;42.648;23.292;2022-09-25T06:05:43;13.77;;;9.13;;
30934;SDS011;51033;42.648;23.292;2022-09-25T06:08:10;13.07;;;9.63;;
30934;SDS011;51033;42.648;23.292;2022-09-25T06:10:36;14.18;;;10.60;;
30934;SDS011;51033;42.648;23.292;2022-09-25T06:13:02;15.05;;;10.30;;
30934;SDS011;51033;42.648;23.292;2022-09-25T06:15:34;17.02;;;10.18;;
30934;SDS011;51033;42.648;23.292;2022-09-25T06:18:02;13.38;;;9.13;;
30934;SDS011;51033;42.648;23.292;2022-09-25T06:20:28;13.90;;;8.45;;
30934;SDS011;51033;42.648;23.292;2022-09-25T06:22:54;14.80;;;9.60;;
30934;SDS011;51033;42.648;23.292;2022-09-25T06:25:21;12.77;;;9.02;;
30934;SDS011;51033;42.648;23.292;2022-09-25T06:27:57;13.80;;;9.38;;
30934;SDS011;51033;42.648;23.292;2022-09-25T06:30:28;13.68;;;9.18;;
30934;SDS011;51033;42.648;23.292;2022-09-25T06:33:06;15.70;;;9.85;;
30934;SDS011;51033;42.648;23.292;2022-09-25T06:35:40;12.18;;;8.60;;
30934;SDS011;51033;42.648;23.292;2022-09-25T06:38:09;14.07;;;9.35;;
30934;SDS011;51033;42.648;23.292;2022-09-25T06:40:35;15.40;;;9.18;;
30934;SDS011;51033;42.648;23.292;2022-09-25T06:43:05;13.15;;;9.10;;
30934;SDS011;51033;42.648;23.292;2022-09-25T06:45:33;12.18;;;8.13;;
30934;SDS011;51033;42.648;23.292;2022-09-25T06:48:03;9.98;;;7.10;;
30934;SDS011;51033;42.648;23.292;2022-09-25T06:50:35;12.05;;;8.35;;
30934;SDS011;51033;42.648;23.292;2022-09-25T06:53:02;10.45;;;6.88;;
30934;SDS011;51033;42.648;23.292;2022-09-25T06:55:28;7.00;;;5.40;;
30934;SDS011;51033;42.648;23.292;2022-09-25T06:57:56;8.70;;;6.07;;
30934;SDS011;51033;42.648;23.292;2022-09-25T07:00:22;7.22;;;4.05;;
30934;SDS011;51033;42.648;23.292;2022-09-25T07:02:47;5.00;;;4.05;;
30934;SDS011;51033;42.648;23.292;2022-09-25T07:05:31;5.60;;;4.07;;
30934;SDS011;51033;42.648;23.292;2022-09-25T07:07:57;5.57;;;3.72;;
30934;SDS011;51033;42.648;23.292;2022-09-25T07:10:23;7.43;;;4.45;;
30934;SDS011;51033;42.648;23.292;2022-09-25T07:12:48;8.00;;;4.80;;
30934;SDS011;51033;42.648;23.292;2022-09-25T07:15:14;6.00;;;4.82;;
30934;SDS011;51033;42.648;23.292;2022-09-25T07:17:42;6.63;;;4.10;;
30934;SDS011;51033;42.648;23.292;2022-09-25T07:20:09;5.68;;;4.32;;
30934;SDS011;51033;42.648;23.292;2022-09-25T07:22:37;5.93;;;4.10;;
30934;SDS011;51033;42.648;23.292;2022-09-25T07:25:03;6.28;;;4.07;;
30934;SDS011;51033;42.648;23.292;2022-09-25T07:27:29;5.18;;;3.95;;
30934;SDS011;51033;42.648;23.292;2022-09-25T07:29:54;5.75;;;4.03;;
30934;SDS011;51033;42.648;23.292;2022-09-25T07:32:20;6.53;;;4.82;;
30934;SDS011;51033;42.648;23.292;2022-09-25T07:34:46;5.53;;;3.88;;
30934;SDS011;51033;42.648;23.292;2022-09-25T07:37:14;5.10;;;3.83;;
30934;SDS011;51033;42.648;23.292;2022-09-25T07:39:39;4.85;;;4.22;;
30934;SDS011;51033;42.648;23.292;2022-09-25T07:42:05;6.38;;;4.57;;
30934;SDS011;51033;42.648;23.292;2022-09-25T07:44:30;8.02;;;5.15;;
30934;SDS011;51033;42.648;23.292;2022-09-25T07:46:56;10.20;;;5.10;;
30934;SDS011;51033;42.648;23.292;2022-09-25T07:49:21;6.93;;;4.20;;
30934;SDS011;51033;42.648;23.292;2022-09-25T07:51:47;7.53;;;5.53;;
30934;SDS011;51033;42.648;23.292;2022-09-25T07:54:12;6.82;;;5.10;;
30934;SDS011;51033;42.648;23.292;2022-09-25T07:56:37;9.13;;;5.22;;
30934;SDS011;51033;42.648;23.292;2022-09-25T07:59:03;4.80;;;4.22;;
30934;SDS011;51033;42.648;23.292;2022-09-25T08:01:28;5.93;;;4.32;;
30934;SDS011;51033;42.648;23.292;2022-09-25T08:03:54;7.20;;;3.95;;
30934;SDS011;51033;42.648;23.292;2022-09-25T08:06:19;4.57;;;3.92;;
30934;SDS011;51033;42.648;23.292;2022-09-25T08:08:44;8.98;;;3.63;;
30934;SDS011;51033;42.648;23.292;2022-09-25T08:11:11;6.35;;;3.97;;
30934;SDS011;51033;42.648;23.292;2022-09-25T08:13:39;6.78;;;4.53;;
30934;SDS011;51033;42.648;23.292;2022-09-25T08:16:10;6.50;;;4.70;;
30934;SDS011;51033;42.648;23.292;2022-09-25T08:18:40;7.35;;;5.13;;
30934;SDS011;51033;42.648;23.292;2022-09-25T08:21:06;6.13;;;4.75;;
30934;SDS011;51033;42.648;23.292;2022-09-25T08:23:33;6.85;;;4.32;;
30934;SDS011;51033;42.648;23.292;2022-09-25T08:25:59;5.70;;;4.20;;
30934;SDS011;51033;42.648;23.292;2022-09-25T08:28:25;6.97;;;4.07;;
30934;SDS011;51033;42.648;23.292;2022-09-25T08:30:52;5.85;;;4.63;;
30934;SDS011;51033;42.648;23.292;2022-09-25T08:33:18;5.90;;;4.43;;
30934;SDS011;51033;42.648;23.292;2022-09-25T08:35:53;6.95;;;4.75;;
30934;SDS011;51033;42.648;23.292;2022-09-25T08:38:22;5.70;;;4.95;;
30934;SDS011;51033;42.648;23.292;2022-09-25T08:41:08;4.93;;;4.00;;
30934;SDS011;51033;42.648;23.292;2022-09-25T08:43:55;5.10;;;4.00;;
30934;SDS011;51033;42.648;23.292;2022-09-25T08:46:40;6.03;;;5.07;;
30934;SDS011;51033;42.648;23.292;2022-09-25T08:49:29;5.85;;;4.25;;
30934;SDS011;51033;42.648;23.292;2022-09-25T08:52:00;4.65;;;4.05;;
30934;SDS011;51033;42.648;23.292;2022-09-25T08:54:29;6.95;;;4.47;;
30934;SDS011;51033;42.648;23.292;2022-09-25T08:57:00;5.40;;;4.00;;
30934;SDS011;51033;42.648;23.292;2022-09-25T08:59:48;8.05;;;4.22;;
30934;SDS011;51033;42.648;23.292;2022-09-25T09:02:20;8.07;;;4.88;;
30934;SDS011;51033;42.648;23.292;2022-09-25T09:04:55;5.85;;;3.83;;
30934;SDS011;51033;42.648;23.292;2022-09-25T09:07:33;8.80;;;4.55;;
30934;SDS011;51033;42.648;23.292;2022-09-25T09:12:47;4.90;;;4.45;;
30934;SDS011;51033;42.648;23.292;2022-09-25T09:18:01;4.65;;;3.60;;
30934;SDS011;51033;42.648;23.292;2022-09-25T09:20:42;3.90;;;3.47;;
30934;SDS011;51033;42.648;23.292;2022-09-25T09:23:18;13.35;;;4.75;;
30934;SDS011;51033;42.648;23.292;2022-09-25T09:25:58;3.88;;;3.42;;
30934;SDS011;51033;42.648;23.292;2022-09-25T09:28:45;4.30;;;3.50;;
30934;SDS011;51033;42.648;23.292;2022-09-25T09:33:52;4.90;;;3.60;;
30934;SDS011;51033;42.648;23.292;2022-09-25T09:39:01;4.70;;;3.72;;
30934;SDS011;51033;42.648;23.292;2022-09-25T09:44:30;4.38;;;3.58;;
30934;SDS011;51033;42.648;23.292;2022-09-25T09:52:27;4.32;;;3.30;;
30934;SDS011;51033;42.648;23.292;2022-09-25T09:57:44;6.45;;;3.65;;
30934;SDS011;51033;42.648;23.292;2022-09-25T10:00:17;4.30;;;3.53;;
30934;SDS011;51033;42.648;23.292;2022-09-25T10:02:47;5.88;;;3.53;;
30934;SDS011;51033;42.648;23.292;2022-09-25T10:05:21;3.58;;;2.97;;
30934;SDS011;51033;42.648;23.292;2022-09-25T10:07:51;3.13;;;2.83;;
30934;SDS011;51033;42.648;23.292;2022-09-25T10:10:17;3.80;;;2.97;;
30934;SDS011;51033;42.648;23.292;2022-09-25T10:12:50;5.78;;;3.25;;
30934;SDS011;51033;42.648;23.292;2022-09-25T10:18:16;5.07;;;3.42;;
30934;SDS011;51033;42.648;23.292;2022-09-25T10:20:49;3.85;;;2.95;;
30934;SDS011;51033;42.648;23.292;2022-09-25T10:23:32;3.38;;;2.95;;
30934;SDS011;51033;42.648;23.292;2022-09-25T10:26:03;3.35;;;2.92;;
30934;SDS011;51033;42.648;23.292;2022-09-25T10:28:47;5.30;;;3.88;;
30934;SDS011;51033;42.648;23.292;2022-09-25T10:31:12;4.53;;;2.92;;
30934;SDS011;51033;42.648;23.292;2022-09-25T10:33:40;4.60;;;3.20;;
30934;SDS011;51033;42.648;23.292;2022-09-25T10:36:06;3.83;;;2.70;;
30934;SDS011;51033;42.648;23.292;2022-09-25T10:41:09;3.45;;;2.75;;
30934;SDS011;51033;42.648;23.292;2022-09-25T10:43:58;3.63;;;3.17;;
30934;SDS011;51033;42.648;23.292;2022-09-25T10:46:35;3.72;;;2.95;;
30934;SDS011;51033;42.648;23.292;2022-09-25T10:49:24;3.55;;;2.53;;
30934;SDS011;51033;42.648;23.292;2022-09-25T10:52:10;3.45;;;2.50;;
30934;SDS011;51033;42.648;23.292;2022-09-25T10:54:37;3.53;;;2.70;;
30934;SDS011;51033;42.648;23.292;2022-09-25T10:57:21;2.78;;;1.98;;
30934;SDS011;51033;42.648;23.292;2022-09-25T10:59:58;3.33;;;2.80;;
30934;SDS011;51033;42.648;23.292;2022-09-25T11:02:33;4.50;;;2.28;;
30934;SDS011;51033;42.648;23.292;2022-09-25T11:05:02;3.42;;;2.40;;
30934;SDS011;51033;42.648;23.292;2022-09-25T11:07:28;4.20;;;2.55;;
30934;SDS011;51033;42.648;23.292;2022-09-25T11:09:54;3.67;;;2.60;;
30934;SDS011;51033;42.648;23.292;2022-09-25T11:12:21;3.70;;;2.75;;
30934;SDS011;51033;42.648;23.292;2022-09-25T11:15:11;4.10;;;2.80;;
30934;SDS011;51033;42.648;23.292;2022-09-25T11:17:42;3.22;;;2.83;;
30934;SDS011;51033;42.648;23.292;2022-09-25T11:23:04;2.35;;;2.08;;
30934;SDS011;51033;42.648;23.292;2022-09-25T11:25:56;2.90;;;2.38;;
30934;SDS011;51033;42.648;23.292;2022-09-25T11:28:38;7.13;;;3.60;;
30934;SDS011;51033;42.648;23.292;2022-09-25T11:34:38;3.30;;;2.38;;
30934;SDS011;51033;42.648;23.292;2022-09-25T11:39:44;3.53;;;2.63;;
30934;SDS011;51033;42.648;23.292;2022-09-25T11:50:20;3.58;;;2.42;;
30934;SDS011;51033;42.648;23.292;2022-09-25T12:14:49;3.55;;;2.20;;
30934;SDS011;51033;42.648;23.292;2022-09-25T12:37:34;3.90;;;2.13;;
30934;SDS011;51033;42.648;23.292;2022-09-25T12:42:58;3.63;;;1.95;;
30934;SDS011;51033;42.648;23.292;2022-09-25T12:45:31;3.45;;;1.95;;
30934;SDS011;51033;42.648;23.292;2022-09-25T12:53:38;3.20;;;2.08;;
30934;SDS011;51033;42.648;23.292;2022-09-25T12:56:32;4.13;;;2.00;;
30934;SDS011;51033;42.648;23.292;2022-09-25T13:04:19;2.00;;;1.65;;
30934;SDS011;51033;42.648;23.292;2022-09-25T13:06:49;1.80;;;1.60;;
30934;SDS011;51033;42.648;23.292;2022-09-25T13:09:23;2.08;;;1.70;;
30934;SDS011;51033;42.648;23.292;2022-09-25T13:12:00;2.30;;;1.63;;
30934;SDS011;51033;42.648;23.292;2022-09-25T13:17:07;5.40;;;2.40;;
30934;SDS011;51033;42.648;23.292;2022-09-25T13:19:37;2.75;;;1.73;;
30934;SDS011;51033;42.648;23.292;2022-09-25T13:22:06;2.28;;;1.85;;
30934;SDS011;51033;42.648;23.292;2022-09-25T13:27:39;2.00;;;1.70;;
30934;SDS011;51033;42.648;23.292;2022-09-25T13:30:20;2.90;;;2.05;;
30934;SDS011;51033;42.648;23.292;2022-09-25T13:32:48;2.22;;;2.03;;
30934;SDS011;51033;42.648;23.292;2022-09-25T13:35:16;2.08;;;1.80;;
30934;SDS011;51033;42.648;23.292;2022-09-25T13:37:42;2.63;;;1.90;;
30934;SDS011;51033;42.648;23.292;2022-09-25T13:40:18;1.77;;;1.67;;
30934;SDS011;51033;42.648;23.292;2022-09-25T13:45:44;2.38;;;1.60;;
30934;SDS011;51033;42.648;23.292;2022-09-25T13:48:12;1.60;;;1.20;;
30934;SDS011;51033;42.648;23.292;2022-09-25T13:54:01;3.53;;;1.42;;
30934;SDS011;51033;42.648;23.292;2022-09-25T14:01:38;3.20;;;1.90;;
30934;SDS011;51033;42.648;23.292;2022-09-25T14:06:34;2.22;;;1.60;;
30934;SDS011;51033;42.648;23.292;2022-09-25T14:09:01;1.65;;;1.55;;
30934;SDS011;51033;42.648;23.292;2022-09-25T14:11:33;2.28;;;2.05;;
30934;SDS011;51033;42.648;23.292;2022-09-25T14:14:04;4.60;;;1.42;;
30934;SDS011;51033;42.648;23.292;2022-09-25T14:16:34;2.00;;;1.30;;
30934;SDS011;51033;42.648;23.292;2022-09-25T14:19:07;2.33;;;1.40;;
30934;SDS011;51033;42.648;23.292;2022-09-25T14:21:33;2.60;;;1.67;;
30934;SDS011;51033;42.648;23.292;2022-09-25T14:27:00;3.25;;;1.60;;
30934;SDS011;51033;42.648;23.292;2022-09-25T14:29:30;3.78;;;1.48;;
30934;SDS011;51033;42.648;23.292;2022-09-25T14:40:22;3.88;;;1.90;;
30934;SDS011;51033;42.648;23.292;2022-09-25T14:45:58;2.33;;;1.55;;
30934;SDS011;51033;42.648;23.292;2022-09-25T14:48:31;3.30;;;1.20;;
30934;SDS011;51033;42.648;23.292;2022-09-25T14:51:04;1.33;;;1.17;;
30934;SDS011;51033;42.648;23.292;2022-09-25T14:53:37;4.18;;;1.20;;
30934;SDS011;51033;42.648;23.292;2022-09-25T14:56:06;3.17;;;1.38;;
30934;SDS011;51033;42.648;23.292;2022-09-25T14:58:36;1.42;;;1.10;;
30934;SDS011;51033;42.648;23.292;2022-09-25T15:01:42;1.20;;;1.10;;
30934;SDS011;51033;42.648;23.292;2022-09-25T15:03:59;1.77;;;1.25;;
30934;SDS011;51033;42.648;23.292;2022-09-25T15:06:26;2.45;;;1.40;;
30934;SDS011;51033;42.648;23.292;2022-09-25T15:08:53;1.67;;;1.30;;
30934;SDS011;51033;42.648;23.292;2022-09-25T15:11:19;3.03;;;1.33;;
30934;SDS011;51033;42.648;23.292;2022-09-25T15:13:45;2.65;;;1.40;;
30934;SDS011;51033;42.648;23.292;2022-09-25T15:16:16;1.65;;;1.55;;
30934;SDS011;51033;42.648;23.292;2022-09-25T15:19:14;2.85;;;1.73;;
30934;SDS011;51033;42.648;23.292;2022-09-25T15:21:41;11.15;;;1.88;;
30934;SDS011;51033;42.648;23.292;2022-09-25T15:24:12;1.65;;;1.13;;
30934;SDS011;51033;42.648;23.292;2022-09-25T15:26:48;2.90;;;1.85;;
30934;SDS011;51033;42.648;23.292;2022-09-25T15:29:19;1.27;;;1.13;;
30934;SDS011;51033;42.648;23.292;2022-09-25T15:31:46;1.27;;;1.17;;
30934;SDS011;51033;42.648;23.292;2022-09-25T15:34:24;1.70;;;1.42;;
30934;SDS011;51033;42.648;23.292;2022-09-25T15:39:43;1.75;;;1.40;;
30934;SDS011;51033;42.648;23.292;2022-09-25T15:42:14;3.63;;;1.58;;
30934;SDS011;51033;42.648;23.292;2022-09-25T15:44:40;1.45;;;1.08;;
30934;SDS011;51033;42.648;23.292;2022-09-25T15:47:05;1.58;;;1.27;;
30934;SDS011;51033;42.648;23.292;2022-09-25T15:50:04;2.53;;;1.70;;
30934;SDS011;51033;42.648;23.292;2022-09-25T15:52:37;2.88;;;1.38;;
30934;SDS011;51033;42.648;23.292;2022-09-25T15:55:10;2.92;;;1.60;;
30934;SDS011;51033;42.648;23.292;2022-09-25T15:57:38;4.35;;;2.30;;
30934;SDS011;51033;42.648;23.292;2022-09-25T16:00:06;3.80;;;1.88;;
30934;SDS011;51033;42.648;23.292;2022-09-25T16:03:00;3.65;;;1.50;;
30934;SDS011;51033;42.648;23.292;2022-09-25T16:05:57;1.35;;;1.20;;
30934;SDS011;51033;42.648;23.292;2022-09-25T16:08:29;4.32;;;1.40;;
30934;SDS011;51033;42.648;23.292;2022-09-25T16:13:35;2.10;;;1.13;;
30934;SDS011;51033;42.648;23.292;2022-09-25T16:16:04;2.13;;;1.52;;
30934;SDS011;51033;42.648;23.292;2022-09-25T16:18:41;1.52;;;1.30;;
30934;SDS011;51033;42.648;23.292;2022-09-25T16:23:38;6.45;;;5.13;;
30934;SDS011;51033;42.648;23.292;2022-09-25T16:26:13;3.72;;;2.97;;
30934;SDS011;51033;42.648;23.292;2022-09-25T16:28:43;2.03;;;1.58;;
30934;SDS011;51033;42.648;23.292;2022-09-25T16:31:23;14.40;;;9.55;;
30934;SDS011;51033;42.648;23.292;2022-09-25T16:33:50;4.43;;;3.15;;
30934;SDS011;51033;42.648;23.292;2022-09-25T16:36:19;2.92;;;2.20;;
30934;SDS011;51033;42.648;23.292;2022-09-25T16:39:02;1.92;;;1.40;;
30934;SDS011;51033;42.648;23.292;2022-09-25T16:41:30;19.30;;;10.73;;
30934;SDS011;51033;42.648;23.292;2022-09-25T16:49:08;10.45;;;6.22;;
30934;SDS011;51033;42.648;23.292;2022-09-25T16:51:36;2.95;;;2.05;;
30934;SDS011;51033;42.648;23.292;2022-09-25T16:54:02;4.30;;;2.55;;
30934;SDS011;51033;42.648;23.292;2022-09-25T16:56:29;1.70;;;1.48;;
30934;SDS011;51033;42.648;23.292;2022-09-25T16:58:55;2.15;;;1.77;;
30934;SDS011;51033;42.648;23.292;2022-09-25T17:01:23;2.13;;;1.75;;
30934;SDS011;51033;42.648;23.292;2022-09-25T17:03:50;1.70;;;1.60;;
30934;SDS011;51033;42.648;23.292;2022-09-25T17:08:46;2.00;;;1.80;;
30934;SDS011;51033;42.648;23.292;2022-09-25T17:11:12;1.85;;;1.58;;
30934;SDS011;51033;42.648;23.292;2022-09-25T17:13:39;8.75;;;2.05;;
30934;SDS011;51033;42.648;23.292;2022-09-25T17:16:06;2.20;;;1.80;;
30934;SDS011;51033;42.648;23.292;2022-09-25T17:18:31;2.03;;;1.58;;
30934;SDS011;51033;42.648;23.292;2022-09-25T17:20:58;1.67;;;1.58;;
30934;SDS011;51033;42.648;23.292;2022-09-25T17:23:25;3.95;;;1.73;;
30934;SDS011;51033;42.648;23.292;2022-09-25T17:25:51;2.42;;;1.70;;
30934;SDS011;51033;42.648;23.292;2022-09-25T17:28:24;3.38;;;1.65;;
30934;SDS011;51033;42.648;23.292;2022-09-25T17:30:50;2.13;;;1.73;;
30934;SDS011;51033;42.648;23.292;2022-09-25T17:33:19;3.65;;;2.10;;
30934;SDS011;51033;42.648;23.292;2022-09-25T17:36:02;2.15;;;1.88;;
30934;SDS011;51033;42.648;23.292;2022-09-25T17:38:29;3.88;;;2.35;;
30934;SDS011;51033;42.648;23.292;2022-09-25T17:41:02;2.33;;;1.90;;
30934;SDS011;51033;42.648;23.292;2022-09-25T17:43:30;2.47;;;1.75;;
30934;SDS011;51033;42.648;23.292;2022-09-25T17:45:56;2.50;;;1.48;;
30934;SDS011;51033;42.648;23.292;2022-09-25T17:48:25;2.03;;;1.65;;
30934;SDS011;51033;42.648;23.292;2022-09-25T17:51:16;2.10;;;1.60;;
30934;SDS011;51033;42.648;23.292;2022-09-25T17:53:45;4.00;;;1.88;;
30934;SDS011;51033;42.648;23.292;2022-09-25T17:56:13;5.00;;;1.98;;
30934;SDS011;51033;42.648;23.292;2022-09-25T17:58:39;3.00;;;1.83;;
30934;SDS011;51033;42.648;23.292;2022-09-25T18:01:18;2.47;;;1.80;;
30934;SDS011;51033;42.648;23.292;2022-09-25T18:03:48;2.67;;;2.42;;